sensor_id;sensor_type;location;lat;lon;timestamp;P1;durP1;ratioP1;P2;durP2;ratioP2
9256;SDS011;4665;51.368;6.782;2023-01-16T00:00:58;2.87;;;0.97;;
9256;SDS011;4665;51.368;6.782;2023-01-16T00:03:24;4.27;;;0.97;;
9256;SDS011;4665;51.368;6.782;2023-01-16T00:05:50;2.73;;;1.00;;
9256;SDS011;4665;51.368;6.782;2023-01-16T00:08:15;1.47;;;1.00;;
9256;SDS011;4665;51.368;6.782;2023-01-16T00:10:41;3.23;;;0.90;;
9256;SDS011;4665;51.368;6.782;2023-01-16T00:13:08;2.40;;;1.10;;
9256;SDS011;4665;51.368;6.782;2023-01-16T00:15:35;1.80;;;0.90;;
9256;SDS011;4665;51.368;6.782;2023-01-16T00:18:00;2.17;;;1.20;;
9256;SDS011;4665;51.368;6.782;2023-01-16T00:20:26;1.87;;;0.90;;
9256;SDS011;4665;51.368;6.782;2023-01-16T00:22:51;1.97;;;1.10;;
9256;SDS011;4665;51.368;6.782;2023-01-16T00:25:17;2.90;;;1.27;;
9256;SDS011;4665;51.368;6.782;2023-01-16T00:27:42;2.33;;;1.03;;
9256;SDS011;4665;51.368;6.782;2023-01-16T00:30:08;0.83;;;0.80;;
9256;SDS011;4665;51.368;6.782;2023-01-16T00:32:34;1.53;;;0.97;;
9256;SDS011;4665;51.368;6.782;2023-01-16T00:34:59;4.50;;;1.10;;
9256;SDS011;4665;51.368;6.782;2023-01-16T00:37:24;3.17;;;0.80;;
9256;SDS011;4665;51.368;6.782;2023-01-16T00:39:50;3.77;;;1.10;;
9256;SDS011;4665;51.368;6.782;2023-01-16T00:42:17;2.53;;;0.90;;
9256;SDS011;4665;51.368;6.782;2023-01-16T00:44:43;0.67;;;0.57;;
9256;SDS011;4665;51.368;6.782;2023-01-16T00:47:08;3.67;;;1.10;;
9256;SDS011;4665;51.368;6.782;2023-01-16T00:49:34;0.97;;;0.80;;
9256;SDS011;4665;51.368;6.782;2023-01-16T00:51:59;2.37;;;0.83;;
9256;SDS011;4665;51.368;6.782;2023-01-16T00:54:25;2.73;;;0.83;;
9256;SDS011;4665;51.368;6.782;2023-01-16T00:56:50;1.70;;;0.90;;
9256;SDS011;4665;51.368;6.782;2023-01-16T00:59:16;2.40;;;0.80;;
9256;SDS011;4665;51.368;6.782;2023-01-16T01:01:41;2.80;;;1.20;;
9256;SDS011;4665;51.368;6.782;2023-01-16T01:04:07;1.00;;;0.60;;
9256;SDS011;4665;51.368;6.782;2023-01-16T01:06:32;2.67;;;1.27;;
9256;SDS011;4665;51.368;6.782;2023-01-16T01:08:58;2.23;;;0.93;;
9256;SDS011;4665;51.368;6.782;2023-01-16T01:11:23;2.40;;;1.27;;
9256;SDS011;4665;51.368;6.782;2023-01-16T01:13:49;0.97;;;0.80;;
9256;SDS011;4665;51.368;6.782;2023-01-16T01:16:14;3.60;;;1.10;;
9256;SDS011;4665;51.368;6.782;2023-01-16T01:18:40;4.50;;;1.10;;
9256;SDS011;4665;51.368;6.782;2023-01-16T01:21:06;2.80;;;1.07;;
9256;SDS011;4665;51.368;6.782;2023-01-16T01:23:32;3.07;;;1.17;;
9256;SDS011;4665;51.368;6.782;2023-01-16T01:25:57;3.67;;;1.10;;
9256;SDS011;4665;51.368;6.782;2023-01-16T01:28:23;3.97;;;1.27;;
9256;SDS011;4665;51.368;6.782;2023-01-16T01:30:48;3.87;;;1.40;;
9256;SDS011;4665;51.368;6.782;2023-01-16T01:33:14;2.50;;;1.07;;
9256;SDS011;4665;51.368;6.782;2023-01-16T01:35:39;5.00;;;1.10;;
9256;SDS011;4665;51.368;6.782;2023-01-16T01:38:05;3.53;;;1.07;;
9256;SDS011;4665;51.368;6.782;2023-01-16T01:40:31;2.03;;;1.30;;
9256;SDS011;4665;51.368;6.782;2023-01-16T01:42:58;2.40;;;0.90;;
9256;SDS011;4665;51.368;6.782;2023-01-16T01:45:24;5.07;;;1.20;;
9256;SDS011;4665;51.368;6.782;2023-01-16T01:48:00;2.67;;;1.20;;
9256;SDS011;4665;51.368;6.782;2023-01-16T01:50:40;1.70;;;0.80;;
9256;SDS011;4665;51.368;6.782;2023-01-16T01:53:18;3.17;;;1.20;;
9256;SDS011;4665;51.368;6.782;2023-01-16T01:55:50;4.67;;;1.50;;
9256;SDS011;4665;51.368;6.782;2023-01-16T01:58:17;3.13;;;1.30;;
9256;SDS011;4665;51.368;6.782;2023-01-16T02:00:51;2.63;;;1.00;;
9256;SDS011;4665;51.368;6.782;2023-01-16T02:03:37;3.20;;;1.30;;
9256;SDS011;4665;51.368;6.782;2023-01-16T02:06:13;1.77;;;0.90;;
9256;SDS011;4665;51.368;6.782;2023-01-16T02:08:44;2.83;;;1.70;;
9256;SDS011;4665;51.368;6.782;2023-01-16T02:11:23;2.03;;;1.33;;
9256;SDS011;4665;51.368;6.782;2023-01-16T02:14:00;2.47;;;1.17;;
9256;SDS011;4665;51.368;6.782;2023-01-16T02:16:29;1.10;;;0.83;;
9256;SDS011;4665;51.368;6.782;2023-01-16T02:19:36;1.83;;;0.97;;
9256;SDS011;4665;51.368;6.782;2023-01-16T02:35:57;2.80;;;1.20;;
9256;SDS011;4665;51.368;6.782;2023-01-16T02:41:37;1.73;;;0.80;;
9256;SDS011;4665;51.368;6.782;2023-01-16T02:46:47;2.13;;;1.07;;
9256;SDS011;4665;51.368;6.782;2023-01-16T02:49:23;2.93;;;1.03;;
9256;SDS011;4665;51.368;6.782;2023-01-16T02:52:12;1.93;;;0.80;;
9256;SDS011;4665;51.368;6.782;2023-01-16T02:55:01;2.00;;;0.90;;
9256;SDS011;4665;51.368;6.782;2023-01-16T02:57:33;1.77;;;0.90;;
9256;SDS011;4665;51.368;6.782;2023-01-16T03:00:05;2.33;;;1.00;;
9256;SDS011;4665;51.368;6.782;2023-01-16T03:02:32;1.30;;;1.20;;
9256;SDS011;4665;51.368;6.782;2023-01-16T03:04:57;1.90;;;1.40;;
9256;SDS011;4665;51.368;6.782;2023-01-16T03:12:49;1.93;;;1.10;;
9256;SDS011;4665;51.368;6.782;2023-01-16T03:15:28;1.50;;;1.40;;
9256;SDS011;4665;51.368;6.782;2023-01-16T03:21:10;1.37;;;0.60;;
9256;SDS011;4665;51.368;6.782;2023-01-16T03:23:55;1.70;;;1.03;;
9256;SDS011;4665;51.368;6.782;2023-01-16T03:29:12;0.97;;;0.83;;
9256;SDS011;4665;51.368;6.782;2023-01-16T03:31:51;1.13;;;1.00;;
9256;SDS011;4665;51.368;6.782;2023-01-16T03:37:36;3.47;;;0.90;;
9256;SDS011;4665;51.368;6.782;2023-01-16T03:40:09;1.80;;;1.07;;
9256;SDS011;4665;51.368;6.782;2023-01-16T03:42:40;1.53;;;0.90;;
9256;SDS011;4665;51.368;6.782;2023-01-16T03:45:11;1.13;;;0.83;;
9256;SDS011;4665;51.368;6.782;2023-01-16T03:47:49;0.67;;;0.57;;
9256;SDS011;4665;51.368;6.782;2023-01-16T03:50:20;0.73;;;0.73;;
9256;SDS011;4665;51.368;6.782;2023-01-16T03:52:48;1.53;;;0.90;;
9256;SDS011;4665;51.368;6.782;2023-01-16T03:55:20;0.70;;;0.70;;
9256;SDS011;4665;51.368;6.782;2023-01-16T03:58:01;0.73;;;0.73;;
9256;SDS011;4665;51.368;6.782;2023-01-16T04:00:47;1.23;;;0.50;;
9256;SDS011;4665;51.368;6.782;2023-01-16T04:03:24;2.07;;;0.60;;
9256;SDS011;4665;51.368;6.782;2023-01-16T04:08:27;0.60;;;0.57;;
9256;SDS011;4665;51.368;6.782;2023-01-16T04:10:56;2.00;;;0.73;;
9256;SDS011;4665;51.368;6.782;2023-01-16T04:13:24;1.70;;;0.70;;
9256;SDS011;4665;51.368;6.782;2023-01-16T04:15:56;0.80;;;0.40;;
9256;SDS011;4665;51.368;6.782;2023-01-16T04:18:28;2.47;;;0.80;;
9256;SDS011;4665;51.368;6.782;2023-01-16T04:20:56;0.40;;;0.40;;
9256;SDS011;4665;51.368;6.782;2023-01-16T04:23:22;1.93;;;0.67;;
9256;SDS011;4665;51.368;6.782;2023-01-16T04:25:48;0.47;;;0.47;;
9256;SDS011;4665;51.368;6.782;2023-01-16T04:28:13;0.67;;;0.50;;
9256;SDS011;4665;51.368;6.782;2023-01-16T04:30:38;0.80;;;0.53;;
9256;SDS011;4665;51.368;6.782;2023-01-16T04:33:04;1.00;;;0.50;;
9256;SDS011;4665;51.368;6.782;2023-01-16T04:35:30;2.70;;;0.57;;
9256;SDS011;4665;51.368;6.782;2023-01-16T04:37:56;0.90;;;0.50;;
9256;SDS011;4665;51.368;6.782;2023-01-16T04:40:21;1.83;;;0.30;;
9256;SDS011;4665;51.368;6.782;2023-01-16T04:42:47;0.73;;;0.37;;
9256;SDS011;4665;51.368;6.782;2023-01-16T04:45:13;0.93;;;0.50;;
9256;SDS011;4665;51.368;6.782;2023-01-16T04:47:38;1.40;;;0.73;;
9256;SDS011;4665;51.368;6.782;2023-01-16T04:50:04;3.70;;;1.07;;
9256;SDS011;4665;51.368;6.782;2023-01-16T04:52:30;1.07;;;0.60;;
9256;SDS011;4665;51.368;6.782;2023-01-16T04:54:55;4.03;;;0.83;;
9256;SDS011;4665;51.368;6.782;2023-01-16T04:57:21;0.57;;;0.50;;
9256;SDS011;4665;51.368;6.782;2023-01-16T04:59:46;2.23;;;1.00;;
9256;SDS011;4665;51.368;6.782;2023-01-16T05:02:12;1.37;;;0.60;;
9256;SDS011;4665;51.368;6.782;2023-01-16T05:04:37;1.53;;;0.77;;
9256;SDS011;4665;51.368;6.782;2023-01-16T05:07:03;1.40;;;0.80;;
9256;SDS011;4665;51.368;6.782;2023-01-16T05:09:28;2.17;;;1.00;;
9256;SDS011;4665;51.368;6.782;2023-01-16T05:11:54;2.37;;;0.77;;
9256;SDS011;4665;51.368;6.782;2023-01-16T05:14:19;2.83;;;0.73;;
9256;SDS011;4665;51.368;6.782;2023-01-16T05:16:45;1.20;;;0.83;;
9256;SDS011;4665;51.368;6.782;2023-01-16T05:19:10;1.10;;;1.00;;
9256;SDS011;4665;51.368;6.782;2023-01-16T05:21:38;2.17;;;0.80;;
9256;SDS011;4665;51.368;6.782;2023-01-16T05:24:03;1.07;;;1.03;;
9256;SDS011;4665;51.368;6.782;2023-01-16T05:26:29;1.80;;;1.00;;
9256;SDS011;4665;51.368;6.782;2023-01-16T05:28:55;1.93;;;0.90;;
9256;SDS011;4665;51.368;6.782;2023-01-16T05:31:20;1.60;;;0.83;;
9256;SDS011;4665;51.368;6.782;2023-01-16T05:33:46;0.60;;;0.60;;
9256;SDS011;4665;51.368;6.782;2023-01-16T05:36:11;1.83;;;0.87;;
9256;SDS011;4665;51.368;6.782;2023-01-16T05:38:36;1.67;;;0.77;;
9256;SDS011;4665;51.368;6.782;2023-01-16T05:41:02;3.00;;;0.97;;
9256;SDS011;4665;51.368;6.782;2023-01-16T05:43:28;2.50;;;1.03;;
9256;SDS011;4665;51.368;6.782;2023-01-16T05:45:53;1.63;;;0.90;;
9256;SDS011;4665;51.368;6.782;2023-01-16T05:48:19;2.20;;;0.77;;
9256;SDS011;4665;51.368;6.782;2023-01-16T05:50:44;2.30;;;0.93;;
9256;SDS011;4665;51.368;6.782;2023-01-16T05:53:10;2.00;;;0.87;;
9256;SDS011;4665;51.368;6.782;2023-01-16T05:55:42;1.20;;;0.90;;
9256;SDS011;4665;51.368;6.782;2023-01-16T05:58:10;1.93;;;1.10;;
9256;SDS011;4665;51.368;6.782;2023-01-16T06:00:37;1.03;;;0.93;;
9256;SDS011;4665;51.368;6.782;2023-01-16T06:03:03;0.70;;;0.70;;
9256;SDS011;4665;51.368;6.782;2023-01-16T06:05:29;0.63;;;0.50;;
9256;SDS011;4665;51.368;6.782;2023-01-16T06:07:56;2.43;;;0.90;;
9256;SDS011;4665;51.368;6.782;2023-01-16T06:10:22;2.80;;;0.90;;
9256;SDS011;4665;51.368;6.782;2023-01-16T06:12:48;3.27;;;0.97;;
9256;SDS011;4665;51.368;6.782;2023-01-16T06:15:14;1.23;;;0.90;;
9256;SDS011;4665;51.368;6.782;2023-01-16T06:17:39;3.57;;;0.80;;
9256;SDS011;4665;51.368;6.782;2023-01-16T06:20:04;2.13;;;0.90;;
9256;SDS011;4665;51.368;6.782;2023-01-16T06:22:30;1.93;;;0.93;;
9256;SDS011;4665;51.368;6.782;2023-01-16T06:24:56;0.97;;;0.83;;
9256;SDS011;4665;51.368;6.782;2023-01-16T06:27:21;4.00;;;0.67;;
9256;SDS011;4665;51.368;6.782;2023-01-16T06:29:46;1.17;;;0.57;;
9256;SDS011;4665;51.368;6.782;2023-01-16T06:32:12;0.60;;;0.50;;
9256;SDS011;4665;51.368;6.782;2023-01-16T06:34:37;2.50;;;0.80;;
9256;SDS011;4665;51.368;6.782;2023-01-16T06:37:03;2.27;;;0.80;;
9256;SDS011;4665;51.368;6.782;2023-01-16T06:39:28;0.33;;;0.33;;
9256;SDS011;4665;51.368;6.782;2023-01-16T06:41:53;2.27;;;0.50;;
9256;SDS011;4665;51.368;6.782;2023-01-16T06:44:19;1.30;;;0.40;;
9256;SDS011;4665;51.368;6.782;2023-01-16T06:46:44;0.67;;;0.63;;
9256;SDS011;4665;51.368;6.782;2023-01-16T06:49:10;1.50;;;0.80;;
9256;SDS011;4665;51.368;6.782;2023-01-16T06:51:36;0.97;;;0.63;;
9256;SDS011;4665;51.368;6.782;2023-01-16T06:54:01;1.03;;;0.50;;
9256;SDS011;4665;51.368;6.782;2023-01-16T06:56:28;1.73;;;0.70;;
9256;SDS011;4665;51.368;6.782;2023-01-16T06:58:54;0.73;;;0.60;;
9256;SDS011;4665;51.368;6.782;2023-01-16T07:01:19;1.07;;;0.73;;
9256;SDS011;4665;51.368;6.782;2023-01-16T07:03:45;0.53;;;0.23;;
9256;SDS011;4665;51.368;6.782;2023-01-16T07:06:10;2.23;;;1.03;;
9256;SDS011;4665;51.368;6.782;2023-01-16T07:08:38;1.80;;;0.70;;
9256;SDS011;4665;51.368;6.782;2023-01-16T07:11:03;3.77;;;0.77;;
9256;SDS011;4665;51.368;6.782;2023-01-16T07:13:29;1.30;;;0.80;;
9256;SDS011;4665;51.368;6.782;2023-01-16T07:15:55;1.73;;;0.63;;
9256;SDS011;4665;51.368;6.782;2023-01-16T07:18:39;2.20;;;0.77;;
9256;SDS011;4665;51.368;6.782;2023-01-16T07:21:17;2.80;;;0.57;;
9256;SDS011;4665;51.368;6.782;2023-01-16T07:24:06;0.90;;;0.43;;
9256;SDS011;4665;51.368;6.782;2023-01-16T07:26:34;1.30;;;0.87;;
9256;SDS011;4665;51.368;6.782;2023-01-16T07:29:02;1.90;;;0.90;;
9256;SDS011;4665;51.368;6.782;2023-01-16T07:31:29;0.60;;;0.60;;
9256;SDS011;4665;51.368;6.782;2023-01-16T07:33:56;1.10;;;0.60;;
9256;SDS011;4665;51.368;6.782;2023-01-16T07:36:22;2.03;;;0.80;;
9256;SDS011;4665;51.368;6.782;2023-01-16T07:38:47;2.30;;;0.90;;
9256;SDS011;4665;51.368;6.782;2023-01-16T07:41:13;1.27;;;1.00;;
9256;SDS011;4665;51.368;6.782;2023-01-16T07:43:39;2.00;;;1.00;;
9256;SDS011;4665;51.368;6.782;2023-01-16T07:46:05;1.20;;;1.03;;
9256;SDS011;4665;51.368;6.782;2023-01-16T07:48:30;1.10;;;1.00;;
9256;SDS011;4665;51.368;6.782;2023-01-16T07:50:56;3.00;;;1.10;;
9256;SDS011;4665;51.368;6.782;2023-01-16T07:53:24;3.77;;;1.60;;
9256;SDS011;4665;51.368;6.782;2023-01-16T07:55:53;2.93;;;1.20;;
9256;SDS011;4665;51.368;6.782;2023-01-16T07:58:22;4.83;;;1.10;;
9256;SDS011;4665;51.368;6.782;2023-01-16T08:00:48;0.80;;;0.77;;
9256;SDS011;4665;51.368;6.782;2023-01-16T08:03:14;0.93;;;0.90;;
9256;SDS011;4665;51.368;6.782;2023-01-16T08:05:40;1.20;;;1.10;;
9256;SDS011;4665;51.368;6.782;2023-01-16T08:08:08;3.17;;;1.00;;
9256;SDS011;4665;51.368;6.782;2023-01-16T08:10:34;1.03;;;1.00;;
9256;SDS011;4665;51.368;6.782;2023-01-16T08:12:59;1.23;;;1.10;;
9256;SDS011;4665;51.368;6.782;2023-01-16T08:15:25;2.37;;;0.97;;
9256;SDS011;4665;51.368;6.782;2023-01-16T08:17:51;1.20;;;1.10;;
9256;SDS011;4665;51.368;6.782;2023-01-16T08:20:16;0.90;;;0.90;;
9256;SDS011;4665;51.368;6.782;2023-01-16T08:22:45;1.13;;;0.97;;
9256;SDS011;4665;51.368;6.782;2023-01-16T08:25:12;3.40;;;1.37;;
9256;SDS011;4665;51.368;6.782;2023-01-16T08:27:40;1.70;;;1.13;;
9256;SDS011;4665;51.368;6.782;2023-01-16T08:30:06;2.67;;;1.33;;
9256;SDS011;4665;51.368;6.782;2023-01-16T08:32:34;2.40;;;1.00;;
9256;SDS011;4665;51.368;6.782;2023-01-16T08:34:59;2.37;;;1.10;;
9256;SDS011;4665;51.368;6.782;2023-01-16T08:37:25;2.63;;;0.80;;
9256;SDS011;4665;51.368;6.782;2023-01-16T08:39:50;2.10;;;1.10;;
9256;SDS011;4665;51.368;6.782;2023-01-16T08:42:15;1.63;;;0.87;;
9256;SDS011;4665;51.368;6.782;2023-01-16T08:44:59;2.33;;;0.90;;
9256;SDS011;4665;51.368;6.782;2023-01-16T08:47:43;0.80;;;0.80;;
9256;SDS011;4665;51.368;6.782;2023-01-16T08:50:27;2.47;;;1.10;;
9256;SDS011;4665;51.368;6.782;2023-01-16T08:53:12;1.87;;;0.80;;
9256;SDS011;4665;51.368;6.782;2023-01-16T08:55:37;3.77;;;1.30;;
9256;SDS011;4665;51.368;6.782;2023-01-16T08:58:05;1.60;;;0.70;;
9256;SDS011;4665;51.368;6.782;2023-01-16T09:00:31;2.20;;;0.80;;
9256;SDS011;4665;51.368;6.782;2023-01-16T09:02:57;3.00;;;1.20;;
9256;SDS011;4665;51.368;6.782;2023-01-16T09:05:24;2.57;;;1.23;;
9256;SDS011;4665;51.368;6.782;2023-01-16T09:07:50;1.77;;;1.03;;
9256;SDS011;4665;51.368;6.782;2023-01-16T09:10:16;1.93;;;1.10;;
9256;SDS011;4665;51.368;6.782;2023-01-16T09:12:42;2.53;;;0.97;;
9256;SDS011;4665;51.368;6.782;2023-01-16T09:15:26;4.07;;;1.20;;
9256;SDS011;4665;51.368;6.782;2023-01-16T09:17:51;2.77;;;1.07;;
9256;SDS011;4665;51.368;6.782;2023-01-16T09:20:17;0.70;;;0.70;;
9256;SDS011;4665;51.368;6.782;2023-01-16T09:22:42;1.73;;;0.60;;
9256;SDS011;4665;51.368;6.782;2023-01-16T09:25:08;2.67;;;1.07;;
9256;SDS011;4665;51.368;6.782;2023-01-16T09:27:34;1.53;;;0.77;;
9256;SDS011;4665;51.368;6.782;2023-01-16T09:30:00;3.13;;;1.03;;
9256;SDS011;4665;51.368;6.782;2023-01-16T09:32:26;3.30;;;0.90;;
9256;SDS011;4665;51.368;6.782;2023-01-16T09:34:52;2.40;;;0.80;;
9256;SDS011;4665;51.368;6.782;2023-01-16T09:37:17;1.83;;;1.20;;
9256;SDS011;4665;51.368;6.782;2023-01-16T09:39:43;2.07;;;0.87;;
9256;SDS011;4665;51.368;6.782;2023-01-16T09:45:31;0.73;;;0.73;;
9256;SDS011;4665;51.368;6.782;2023-01-16T09:48:02;2.57;;;0.80;;
9256;SDS011;4665;51.368;6.782;2023-01-16T09:53:00;2.83;;;1.10;;
9256;SDS011;4665;51.368;6.782;2023-01-16T09:55:48;1.57;;;0.60;;
9256;SDS011;4665;51.368;6.782;2023-01-16T09:58:39;0.97;;;0.90;;
9256;SDS011;4665;51.368;6.782;2023-01-16T10:03:35;0.60;;;0.60;;
9256;SDS011;4665;51.368;6.782;2023-01-16T10:06:14;1.13;;;0.73;;
9256;SDS011;4665;51.368;6.782;2023-01-16T10:12:04;0.90;;;0.63;;
9256;SDS011;4665;51.368;6.782;2023-01-16T10:27:37;0.77;;;0.70;;
9256;SDS011;4665;51.368;6.782;2023-01-16T10:35:51;0.70;;;0.70;;
9256;SDS011;4665;51.368;6.782;2023-01-16T10:41:18;0.87;;;0.53;;
9256;SDS011;4665;51.368;6.782;2023-01-16T10:44:27;1.57;;;0.90;;
9256;SDS011;4665;51.368;6.782;2023-01-16T10:47:33;1.87;;;0.70;;
9256;SDS011;4665;51.368;6.782;2023-01-16T10:50:33;1.00;;;0.90;;
9256;SDS011;4665;51.368;6.782;2023-01-16T10:53:00;0.70;;;0.70;;
9256;SDS011;4665;51.368;6.782;2023-01-16T10:55:43;0.80;;;0.60;;
9256;SDS011;4665;51.368;6.782;2023-01-16T10:58:30;1.50;;;0.53;;
9256;SDS011;4665;51.368;6.782;2023-01-16T11:01:03;0.53;;;0.50;;
9256;SDS011;4665;51.368;6.782;2023-01-16T11:08:51;1.47;;;0.50;;
9256;SDS011;4665;51.368;6.782;2023-01-16T11:11:40;0.43;;;0.43;;
9256;SDS011;4665;51.368;6.782;2023-01-16T11:14:29;0.50;;;0.50;;
9256;SDS011;4665;51.368;6.782;2023-01-16T11:17:28;0.40;;;0.37;;
9256;SDS011;4665;51.368;6.782;2023-01-16T11:20:19;0.17;;;0.17;;
9256;SDS011;4665;51.368;6.782;2023-01-16T11:23:23;0.50;;;0.50;;
9256;SDS011;4665;51.368;6.782;2023-01-16T11:25:50;0.40;;;0.30;;
9256;SDS011;4665;51.368;6.782;2023-01-16T11:28:20;0.20;;;0.20;;
9256;SDS011;4665;51.368;6.782;2023-01-16T11:30:48;0.77;;;0.50;;
9256;SDS011;4665;51.368;6.782;2023-01-16T11:33:17;0.93;;;0.50;;
9256;SDS011;4665;51.368;6.782;2023-01-16T11:35:56;0.30;;;0.30;;
9256;SDS011;4665;51.368;6.782;2023-01-16T11:38:24;0.53;;;0.40;;
9256;SDS011;4665;51.368;6.782;2023-01-16T11:40:54;0.27;;;0.27;;
9256;SDS011;4665;51.368;6.782;2023-01-16T11:43:22;0.30;;;0.30;;
9256;SDS011;4665;51.368;6.782;2023-01-16T11:46:19;0.30;;;0.30;;
9256;SDS011;4665;51.368;6.782;2023-01-16T11:49:19;0.93;;;0.47;;
9256;SDS011;4665;51.368;6.782;2023-01-16T11:52:20;0.50;;;0.40;;
9256;SDS011;4665;51.368;6.782;2023-01-16T11:55:05;0.53;;;0.53;;
9256;SDS011;4665;51.368;6.782;2023-01-16T12:15:14;0.70;;;0.50;;
9256;SDS011;4665;51.368;6.782;2023-01-16T12:20:24;1.13;;;0.50;;
9256;SDS011;4665;51.368;6.782;2023-01-16T12:26:21;0.47;;;0.47;;
9256;SDS011;4665;51.368;6.782;2023-01-16T12:31:37;0.87;;;0.63;;
9256;SDS011;4665;51.368;6.782;2023-01-16T12:40:23;2.00;;;0.50;;
9256;SDS011;4665;51.368;6.782;2023-01-16T12:59:45;1.80;;;0.90;;
9256;SDS011;4665;51.368;6.782;2023-01-16T13:02:26;0.70;;;0.70;;
9256;SDS011;4665;51.368;6.782;2023-01-16T13:05:21;1.27;;;0.50;;
9256;SDS011;4665;51.368;6.782;2023-01-16T13:08:06;0.43;;;0.43;;
9256;SDS011;4665;51.368;6.782;2023-01-16T13:10:56;0.40;;;0.40;;
9256;SDS011;4665;51.368;6.782;2023-01-16T13:13:53;1.13;;;0.67;;
9256;SDS011;4665;51.368;6.782;2023-01-16T13:16:32;0.67;;;0.67;;
9256;SDS011;4665;51.368;6.782;2023-01-16T13:27:53;0.53;;;0.53;;
9256;SDS011;4665;51.368;6.782;2023-01-16T13:30:22;2.00;;;0.70;;
9256;SDS011;4665;51.368;6.782;2023-01-16T13:38:36;0.50;;;0.40;;
9256;SDS011;4665;51.368;6.782;2023-01-16T13:43:58;0.53;;;0.53;;
9256;SDS011;4665;51.368;6.782;2023-01-16T13:47:06;0.90;;;0.57;;
9256;SDS011;4665;51.368;6.782;2023-01-16T13:49:35;0.80;;;0.30;;
9256;SDS011;4665;51.368;6.782;2023-01-16T13:52:02;0.50;;;0.50;;
9256;SDS011;4665;51.368;6.782;2023-01-16T13:54:35;0.47;;;0.33;;
9256;SDS011;4665;51.368;6.782;2023-01-16T13:57:21;0.60;;;0.60;;
9256;SDS011;4665;51.368;6.782;2023-01-16T14:02:43;2.17;;;0.97;;
9256;SDS011;4665;51.368;6.782;2023-01-16T14:15:59;0.60;;;0.60;;
9256;SDS011;4665;51.368;6.782;2023-01-16T14:19:01;0.60;;;0.53;;
9256;SDS011;4665;51.368;6.782;2023-01-16T14:21:44;0.60;;;0.40;;
9256;SDS011;4665;51.368;6.782;2023-01-16T14:24:36;0.73;;;0.70;;
9256;SDS011;4665;51.368;6.782;2023-01-16T14:27:04;0.57;;;0.57;;
9256;SDS011;4665;51.368;6.782;2023-01-16T14:29:35;0.93;;;0.70;;
9256;SDS011;4665;51.368;6.782;2023-01-16T14:34:38;0.50;;;0.50;;
9256;SDS011;4665;51.368;6.782;2023-01-16T14:40:35;0.60;;;0.60;;
9256;SDS011;4665;51.368;6.782;2023-01-16T14:58:06;1.47;;;0.60;;
9256;SDS011;4665;51.368;6.782;2023-01-16T15:00:36;0.80;;;0.80;;
9256;SDS011;4665;51.368;6.782;2023-01-16T15:03:12;0.83;;;0.63;;
9256;SDS011;4665;51.368;6.782;2023-01-16T15:05:48;3.10;;;0.40;;
9256;SDS011;4665;51.368;6.782;2023-01-16T15:08:16;0.57;;;0.57;;
9256;SDS011;4665;51.368;6.782;2023-01-16T15:11:22;0.97;;;0.60;;
9256;SDS011;4665;51.368;6.782;2023-01-16T15:14:03;0.47;;;0.47;;
9256;SDS011;4665;51.368;6.782;2023-01-16T15:22:55;0.60;;;0.60;;
9256;SDS011;4665;51.368;6.782;2023-01-16T15:28:18;1.23;;;1.03;;
9256;SDS011;4665;51.368;6.782;2023-01-16T15:30:59;1.00;;;1.00;;
9256;SDS011;4665;51.368;6.782;2023-01-16T15:33:32;1.40;;;0.90;;
9256;SDS011;4665;51.368;6.782;2023-01-16T15:39:00;0.87;;;0.83;;
9256;SDS011;4665;51.368;6.782;2023-01-16T15:41:31;1.53;;;1.00;;
9256;SDS011;4665;51.368;6.782;2023-01-16T15:44:17;1.40;;;0.73;;
9256;SDS011;4665;51.368;6.782;2023-01-16T15:52:32;0.90;;;0.90;;
9256;SDS011;4665;51.368;6.782;2023-01-16T15:55:11;0.80;;;0.80;;
9256;SDS011;4665;51.368;6.782;2023-01-16T15:57:52;0.63;;;0.63;;
9256;SDS011;4665;51.368;6.782;2023-01-16T16:00:36;1.13;;;1.03;;
9256;SDS011;4665;51.368;6.782;2023-01-16T16:05:37;1.47;;;1.37;;
9256;SDS011;4665;51.368;6.782;2023-01-16T16:08:03;2.10;;;1.00;;
9256;SDS011;4665;51.368;6.782;2023-01-16T16:10:39;2.00;;;1.33;;
9256;SDS011;4665;51.368;6.782;2023-01-16T16:13:24;1.97;;;1.20;;
9256;SDS011;4665;51.368;6.782;2023-01-16T16:15:55;1.17;;;1.10;;
9256;SDS011;4665;51.368;6.782;2023-01-16T16:18:50;1.57;;;1.20;;
9256;SDS011;4665;51.368;6.782;2023-01-16T16:21:19;1.30;;;1.20;;
9256;SDS011;4665;51.368;6.782;2023-01-16T16:23:57;2.10;;;1.27;;
9256;SDS011;4665;51.368;6.782;2023-01-16T16:26:31;1.43;;;1.33;;
9256;SDS011;4665;51.368;6.782;2023-01-16T16:29:02;1.40;;;1.30;;
9256;SDS011;4665;51.368;6.782;2023-01-16T16:31:30;1.27;;;1.10;;
9256;SDS011;4665;51.368;6.782;2023-01-16T16:36:46;2.00;;;1.40;;
9256;SDS011;4665;51.368;6.782;2023-01-16T16:39:36;1.47;;;1.37;;
9256;SDS011;4665;51.368;6.782;2023-01-16T16:47:37;2.67;;;1.50;;
9256;SDS011;4665;51.368;6.782;2023-01-16T16:50:51;1.40;;;1.30;;
9256;SDS011;4665;51.368;6.782;2023-01-16T16:53:03;1.30;;;1.30;;
9256;SDS011;4665;51.368;6.782;2023-01-16T16:55:40;1.47;;;1.30;;
9256;SDS011;4665;51.368;6.782;2023-01-16T16:58:13;1.30;;;1.30;;
9256;SDS011;4665;51.368;6.782;2023-01-16T17:00:40;1.47;;;1.30;;
9256;SDS011;4665;51.368;6.782;2023-01-16T17:03:09;1.50;;;1.40;;
9256;SDS011;4665;51.368;6.782;2023-01-16T17:05:37;1.50;;;1.40;;
9256;SDS011;4665;51.368;6.782;2023-01-16T17:08:03;1.40;;;1.30;;
9256;SDS011;4665;51.368;6.782;2023-01-16T17:10:29;2.83;;;1.30;;
9256;SDS011;4665;51.368;6.782;2023-01-16T17:12:55;1.33;;;1.27;;
9256;SDS011;4665;51.368;6.782;2023-01-16T17:15:22;1.53;;;1.47;;
9256;SDS011;4665;51.368;6.782;2023-01-16T17:17:47;1.87;;;1.77;;
9256;SDS011;4665;51.368;6.782;2023-01-16T17:20:21;1.73;;;1.63;;
9256;SDS011;4665;51.368;6.782;2023-01-16T17:22:48;2.07;;;1.87;;
9256;SDS011;4665;51.368;6.782;2023-01-16T17:25:14;1.90;;;1.80;;
9256;SDS011;4665;51.368;6.782;2023-01-16T17:27:49;3.80;;;2.50;;
9256;SDS011;4665;51.368;6.782;2023-01-16T17:30:16;3.57;;;2.43;;
9256;SDS011;4665;51.368;6.782;2023-01-16T17:32:43;2.63;;;2.43;;
9256;SDS011;4665;51.368;6.782;2023-01-16T17:35:16;2.33;;;2.23;;
9256;SDS011;4665;51.368;6.782;2023-01-16T17:37:41;2.50;;;2.40;;
9256;SDS011;4665;51.368;6.782;2023-01-16T17:40:07;2.30;;;2.20;;
9256;SDS011;4665;51.368;6.782;2023-01-16T17:42:34;2.50;;;2.30;;
9256;SDS011;4665;51.368;6.782;2023-01-16T17:45:41;3.10;;;2.80;;
9256;SDS011;4665;51.368;6.782;2023-01-16T17:48:18;2.60;;;2.40;;
9256;SDS011;4665;51.368;6.782;2023-01-16T17:50:47;2.30;;;2.20;;
9256;SDS011;4665;51.368;6.782;2023-01-16T17:53:17;2.37;;;2.27;;
9256;SDS011;4665;51.368;6.782;2023-01-16T17:55:45;2.90;;;2.70;;
9256;SDS011;4665;51.368;6.782;2023-01-16T17:58:15;2.80;;;2.60;;
9256;SDS011;4665;51.368;6.782;2023-01-16T18:00:40;2.63;;;2.47;;
9256;SDS011;4665;51.368;6.782;2023-01-16T18:03:06;2.43;;;2.33;;
9256;SDS011;4665;51.368;6.782;2023-01-16T18:05:32;3.00;;;2.80;;
9256;SDS011;4665;51.368;6.782;2023-01-16T18:07:58;2.80;;;2.70;;
9256;SDS011;4665;51.368;6.782;2023-01-16T18:10:23;3.40;;;3.00;;
9256;SDS011;4665;51.368;6.782;2023-01-16T18:12:49;3.50;;;3.20;;
9256;SDS011;4665;51.368;6.782;2023-01-16T18:15:33;3.40;;;3.10;;
9256;SDS011;4665;51.368;6.782;2023-01-16T18:18:17;3.30;;;3.10;;
9256;SDS011;4665;51.368;6.782;2023-01-16T18:20:42;3.80;;;3.50;;
9256;SDS011;4665;51.368;6.782;2023-01-16T18:23:08;3.60;;;3.30;;
9256;SDS011;4665;51.368;6.782;2023-01-16T18:25:33;2.90;;;2.70;;
9256;SDS011;4665;51.368;6.782;2023-01-16T18:27:58;3.40;;;3.10;;
9256;SDS011;4665;51.368;6.782;2023-01-16T18:30:24;4.00;;;2.90;;
9256;SDS011;4665;51.368;6.782;2023-01-16T18:32:49;3.17;;;2.97;;
9256;SDS011;4665;51.368;6.782;2023-01-16T18:35:15;4.80;;;4.40;;
9256;SDS011;4665;51.368;6.782;2023-01-16T18:37:41;3.10;;;2.90;;
9256;SDS011;4665;51.368;6.782;2023-01-16T18:40:27;3.30;;;3.10;;
9256;SDS011;4665;51.368;6.782;2023-01-16T18:43:11;3.47;;;3.17;;
9256;SDS011;4665;51.368;6.782;2023-01-16T18:45:55;3.70;;;3.40;;
9256;SDS011;4665;51.368;6.782;2023-01-16T18:48:38;5.17;;;3.37;;
9256;SDS011;4665;51.368;6.782;2023-01-16T18:51:23;3.43;;;3.13;;
9256;SDS011;4665;51.368;6.782;2023-01-16T18:54:11;3.57;;;3.27;;
9256;SDS011;4665;51.368;6.782;2023-01-16T18:56:57;4.57;;;3.40;;
9256;SDS011;4665;51.368;6.782;2023-01-16T18:59:42;4.37;;;3.50;;
9256;SDS011;4665;51.368;6.782;2023-01-16T19:05:02;3.70;;;3.40;;
9256;SDS011;4665;51.368;6.782;2023-01-16T19:07:28;4.47;;;4.07;;
9256;SDS011;4665;51.368;6.782;2023-01-16T19:09:56;3.90;;;3.60;;